createdAt,value
2017-09-09T00:00:44.994Z,15.9
2017-09-09T00:01:44.289Z,15.9
2017-09-09T00:02:43.958Z,15.9
2017-09-09T00:03:42.995Z,15.9
2017-09-09T00:04:42.416Z,15.9
2017-09-09T00:05:41.709Z,15.9
2017-09-09T00:06:41.118Z,15.9
2017-09-09T00:07:11.354Z,15.9
2017-09-09T00:07:41.836Z,15.8
2017-09-09T00:08:39.740Z,15.9
2017-09-09T00:09:38.663Z,15.8
2017-09-09T00:10:37.965Z,15.8
2017-09-09T00:11:37.384Z,15.8
2017-09-09T00:12:36.674Z,15.8
2017-09-09T00:13:35.843Z,15.8
2017-09-09T00:14:35.403Z,15.8
2017-09-09T00:15:34.704Z,15.8
2017-09-09T00:16:33.871Z,15.8
2017-09-09T00:18:31.923Z,15.8
2017-09-09T00:19:31.843Z,15.8
2017-09-09T00:20:31.140Z,15.8
2017-09-09T00:21:29.933Z,15.8
2017-09-09T00:23:28.619Z,15.8
2017-09-09T00:24:28.044Z,15.8
2017-09-09T00:25:27.088Z,15.7
2017-09-09T00:26:26.637Z,15.7
2017-09-09T00:27:25.553Z,15.7
2017-09-09T00:28:25.355Z,15.7
2017-09-09T00:29:24.396Z,15.7
2017-09-09T00:31:22.700Z,15.7
2017-09-09T00:32:22.126Z,15.7
2017-09-09T00:33:21.548Z,15.7
2017-09-09T00:35:19.846Z,15.7
2017-09-09T00:36:19.266Z,15.7
2017-09-09T00:37:18.682Z,15.6
2017-09-09T00:38:18.098Z,15.7
2017-09-09T00:39:17.008Z,15.7
2017-09-09T00:40:16.176Z,15.7
2017-09-09T00:41:15.464Z,15.7
2017-09-09T00:42:14.883Z,15.7
2017-09-09T00:43:14.051Z,15.7
2017-09-09T00:44:13.593Z,15.7
2017-09-09T00:45:12.885Z,15.7
2017-09-09T00:46:12.057Z,15.6
2017-09-09T00:47:11.481Z,15.6
2017-09-09T00:48:10.394Z,15.6
2017-09-09T00:49:09.811Z,15.6
2017-09-09T00:50:09.227Z,15.6
2017-09-09T00:51:08.396Z,15.7
2017-09-09T00:52:07.944Z,15.6
2017-09-09T00:53:06.858Z,15.7
2017-09-09T00:54:06.150Z,15.6
2017-09-09T00:55:05.318Z,15.7
2017-09-09T00:56:04.884Z,15.7
2017-09-09T00:57:03.928Z,15.7
2017-09-09T00:58:03.350Z,15.7
2017-09-09T00:59:02.766Z,15.7
2017-09-09T01:00:01.810Z,15.7
2017-09-09T01:01:00.990Z,15.7
2017-09-09T01:02:59.659Z,15.6
2017-09-09T01:03:58.828Z,15.6
2017-09-09T01:04:57.991Z,15.6
2017-09-09T01:05:57.786Z,15.6
2017-09-09T01:06:56.570Z,15.6
2017-09-09T01:07:55.989Z,15.7
2017-09-09T01:08:55.663Z,15.7
2017-09-09T01:09:54.563Z,15.7
2017-09-09T01:10:53.983Z,15.7
2017-09-09T01:11:53.155Z,15.7
2017-09-09T01:12:52.703Z,15.6
2017-09-09T01:13:51.749Z,15.6
2017-09-09T01:14:50.789Z,15.6
2017-09-09T01:15:50.583Z,15.6
2017-09-09T01:16:49.494Z,15.6
2017-09-09T01:17:48.788Z,15.6
2017-09-09T01:19:47.470Z,15.7
2017-09-09T01:20:47.014Z,15.6
2017-09-09T01:21:45.811Z,15.6
2017-09-09T01:22:44.975Z,15.6
2017-09-09T01:23:44.647Z,15.6
2017-09-09T01:24:43.689Z,15.6
2017-09-09T01:26:42.620Z,15.5
2017-09-09T01:28:40.926Z,15.5
2017-09-09T01:29:40.102Z,15.5
2017-09-09T01:30:39.395Z,15.5
2017-09-09T01:31:38.688Z,15.5
2017-09-09T01:32:37.980Z,15.6
2017-09-09T01:33:37.279Z,15.5
2017-09-09T01:34:36.566Z,15.5
2017-09-09T01:35:35.731Z,15.5
2017-09-09T01:37:34.282Z,15.5
2017-09-09T01:38:33.828Z,15.5
2017-09-09T01:41:31.771Z,15.5
2017-09-09T01:42:30.817Z,15.5
2017-09-09T01:43:30.234Z,15.5
2017-09-09T01:44:29.282Z,15.5
2017-09-09T01:45:28.482Z,15.5
2017-09-09T01:46:27.618Z,15.5
2017-09-09T01:47:27.042Z,15.5
2017-09-09T01:48:26.080Z,15.5
2017-09-09T01:49:25.498Z,15.5
2017-09-09T01:50:25.171Z,15.5
2017-09-09T01:51:24.339Z,15.5
2017-09-09T01:52:23.630Z,15.5
2017-09-09T01:53:22.925Z,15.5
2017-09-09T01:54:21.970Z,15.5
2017-09-09T01:54:52.200Z,15.5
2017-09-09T01:55:22.932Z,15.5
2017-09-09T01:55:53.042Z,15.5
2017-09-09T01:56:23.658Z,15.5
2017-09-09T01:56:54.022Z,15.5
2017-09-09T01:57:24.254Z,15.5
2017-09-09T01:57:54.353Z,15.5
2017-09-09T01:59:18.186Z,15.5
2017-09-09T02:00:17.484Z,15.6
2017-09-09T02:01:16.772Z,15.6
2017-09-09T02:02:15.937Z,15.6
2017-09-09T02:03:15.606Z,15.5
2017-09-09T02:04:14.901Z,15.5
2017-09-09T02:05:14.324Z,15.5
2017-09-09T02:06:13.242Z,15.5
2017-09-09T02:07:12.535Z,15.5
2017-09-09T02:08:11.702Z,15.4
2017-09-09T02:09:11.373Z,15.5
2017-09-09T02:10:10.665Z,15.5
2017-09-09T02:11:09.583Z,15.5
2017-09-09T02:12:08.882Z,15.5
2017-09-09T02:13:08.047Z,15.5
2017-09-09T02:14:07.723Z,15.5
2017-09-09T02:15:06.791Z,15.5
2017-09-09T02:16:06.208Z,15.5
2017-09-09T03:17:52.034Z,15.7
2017-09-09T03:18:22.521Z,15.9
2017-09-09T03:19:19.684Z,15.8
2017-09-09T03:20:19.114Z,15.8
2017-09-09T03:21:18.034Z,15.8
2017-09-09T03:22:17.207Z,15.8
2017-09-09T03:24:15.897Z,15.8
2017-09-09T03:25:15.207Z,15.8
2017-09-09T03:26:14.501Z,15.8
2017-09-09T03:28:13.187Z,15.8
2017-09-09T03:29:12.490Z,15.8
2017-09-09T03:30:11.413Z,15.7
2017-09-09T03:31:10.972Z,15.7
2017-09-09T03:32:10.147Z,15.7
2017-09-09T03:33:09.566Z,15.7
2017-09-09T03:34:08.364Z,15.7
2017-09-09T03:35:08.162Z,15.7
2017-09-09T03:36:07.220Z,15.7
2017-09-09T03:37:06.270Z,15.7
2017-09-09T03:38:05.697Z,15.7
2017-09-09T03:39:05.131Z,15.7
2017-09-09T03:40:04.299Z,15.7
2017-09-09T03:41:03.723Z,15.7
2017-09-09T03:42:02.907Z,15.7
2017-09-09T03:43:02.211Z,15.7
2017-09-09T03:45:00.549Z,15.7
2017-09-09T03:46:00.224Z,15.7
2017-09-09T03:46:59.392Z,15.7
2017-09-09T03:47:58.690Z,15.7
2017-09-09T03:48:57.994Z,15.7
2017-09-09T03:49:57.164Z,15.7
2017-09-09T03:50:56.339Z,15.7
2017-09-09T03:51:55.634Z,15.7
2017-09-09T03:52:54.930Z,15.7
2017-09-09T03:53:54.230Z,15.8
2017-09-09T03:54:53.414Z,15.8
2017-09-09T03:55:52.586Z,15.8
2017-09-09T03:56:52.279Z,15.8
2017-09-09T03:57:51.200Z,15.7
2017-09-09T03:58:50.509Z,15.8
2017-09-09T03:59:49.677Z,15.8
2017-09-09T04:00:48.976Z,15.8
2017-09-09T04:02:47.785Z,15.8
2017-09-09T04:03:46.961Z,15.7
2017-09-09T04:04:46.254Z,15.7
2017-09-09T04:05:45.551Z,15.7
2017-09-09T04:06:44.856Z,15.7
2017-09-09T04:07:44.167Z,15.7
2017-09-09T04:08:43.467Z,15.7
2017-09-09T04:09:42.517Z,15.7
2017-09-09T04:10:41.947Z,15.7
2017-09-09T04:11:41.373Z,15.7
2017-09-09T04:12:40.165Z,15.7
2017-09-09T04:13:39.960Z,15.7
2017-09-09T04:14:38.757Z,15.7
2017-09-09T04:15:38.055Z,15.7
2017-09-09T04:16:37.357Z,15.7
2017-09-09T04:17:36.650Z,15.7
2017-09-09T04:18:35.826Z,15.7
2017-09-09T04:19:35.125Z,15.6
2017-09-09T04:20:34.428Z,15.6
2017-09-09T04:21:33.728Z,15.6
2017-09-09T04:22:33.277Z,15.6
2017-09-09T04:23:32.575Z,15.6
2017-09-09T04:27:29.784Z,15.6
2017-09-09T04:28:29.212Z,15.6
2017-09-09T04:29:28.508Z,15.6
2017-09-09T04:30:27.433Z,15.6
2017-09-09T04:31:26.611Z,15.6
2017-09-09T04:32:25.786Z,15.6
2017-09-09T04:33:25.080Z,15.6
2017-09-09T04:34:24.504Z,15.6
2017-09-09T04:35:23.932Z,15.6
2017-09-09T04:36:23.103Z,15.6
2017-09-09T04:37:22.402Z,15.6
2017-09-09T04:38:21.453Z,15.6
2017-09-09T04:39:20.879Z,15.6
2017-09-09T04:40:20.179Z,15.6
2017-09-09T04:41:19.484Z,15.5
2017-09-09T04:42:18.789Z,15.6
2017-09-09T04:43:18.083Z,15.6
2017-09-09T04:44:17.509Z,15.6
2017-09-09T04:45:16.555Z,15.6
2017-09-09T04:46:15.481Z,15.6
2017-09-09T04:47:15.287Z,15.6
2017-09-09T04:48:14.332Z,15.6
2017-09-09T04:49:13.511Z,15.6
2017-09-09T04:50:12.690Z,15.6
2017-09-09T04:51:12.489Z,15.6
2017-09-09T04:52:11.544Z,15.6
2017-09-09T04:53:10.968Z,15.5
2017-09-09T04:54:10.023Z,15.5
2017-09-09T04:54:40.139Z,15.5
2017-09-09T04:55:10.870Z,15.6
2017-09-09T04:56:08.663Z,15.6
2017-09-09T04:57:07.838Z,15.6
2017-09-09T04:58:07.264Z,15.6
2017-09-09T04:59:06.437Z,15.5
2017-09-09T05:00:05.735Z,15.5
2017-09-09T05:01:04.788Z,15.5
2017-09-09T05:02:04.211Z,15.5
2017-09-09T05:03:03.261Z,15.5
2017-09-09T05:04:03.066Z,15.5
2017-09-09T05:05:02.244Z,15.5
2017-09-09T05:06:01.413Z,15.6
2017-09-09T05:07:00.842Z,15.6
2017-09-09T05:07:59.640Z,15.6
2017-09-09T05:08:58.825Z,15.6
2017-09-09T05:09:58.382Z,15.6
2017-09-09T05:10:57.559Z,15.6
2017-09-09T05:11:57.235Z,15.6
2017-09-09T05:12:56.029Z,15.6
2017-09-09T05:13:55.460Z,15.6
2017-09-09T05:14:54.884Z,15.6
2017-09-09T05:15:54.054Z,15.6
2017-09-09T05:16:53.105Z,15.6
2017-09-09T05:17:52.524Z,15.6
2017-09-09T05:18:52.204Z,15.6
2017-09-09T05:19:51.374Z,15.6
2017-09-09T05:20:50.807Z,15.6
2017-09-09T05:21:49.725Z,15.6
2017-09-09T05:22:48.893Z,15.6
2017-09-09T05:23:48.193Z,15.6
2017-09-09T05:24:47.366Z,15.6
2017-09-09T05:26:45.805Z,15.5
2017-09-09T05:27:45.484Z,15.5
2017-09-09T05:28:44.659Z,15.5
2017-09-09T05:29:44.213Z,15.5
2017-09-09T05:30:43.005Z,15.5
2017-09-09T05:31:42.333Z,15.5
2017-09-09T05:32:41.761Z,15.5
2017-09-09T05:33:41.184Z,15.5
2017-09-09T05:34:40.096Z,15.5
2017-09-09T05:35:39.772Z,15.5
2017-09-09T05:36:38.697Z,15.5
2017-09-09T05:37:38.379Z,15.5
2017-09-09T05:38:37.306Z,15.5
2017-09-09T05:40:36.124Z,15.5
2017-09-09T05:41:35.553Z,15.5
2017-09-09T05:42:34.473Z,15.5
2017-09-09T05:43:33.943Z,15.5
2017-09-09T05:44:33.368Z,15.5
2017-09-09T05:45:32.415Z,15.6
2017-09-09T05:46:31.967Z,15.6
2017-09-09T05:47:02.077Z,15.6
2017-09-09T05:47:32.689Z,15.6
2017-09-09T05:48:03.171Z,15.6
2017-09-09T05:48:33.530Z,15.6
2017-09-09T05:49:04.266Z,15.6
2017-09-09T05:50:28.850Z,15.6
2017-09-09T05:51:28.024Z,15.6
2017-09-09T05:52:27.203Z,15.6
2017-09-09T05:53:26.630Z,15.7
2017-09-09T05:54:25.550Z,15.7
2017-09-09T05:55:24.974Z,15.7
2017-09-09T05:56:24.151Z,15.7
2017-09-09T05:57:23.325Z,15.7
2017-09-09T05:59:22.146Z,15.7
2017-09-09T06:00:21.329Z,15.7
2017-09-09T06:01:20.510Z,15.7
2017-09-09T06:02:19.816Z,15.7
2017-09-09T06:03:19.495Z,15.7
2017-09-09T06:04:18.789Z,15.7
2017-09-09T06:05:17.586Z,15.7
2017-09-09T06:06:16.889Z,15.7
2017-09-09T06:07:16.061Z,15.7
2017-09-09T06:08:15.621Z,15.7
2017-09-09T06:09:14.666Z,15.7
2017-09-09T06:10:14.470Z,15.7
2017-09-09T06:11:13.390Z,15.7
2017-09-09T06:12:12.568Z,15.7
2017-09-09T06:13:12.247Z,15.7
2017-09-09T06:14:11.550Z,15.7
2017-09-09T06:15:10.482Z,15.7
2017-09-09T06:16:09.924Z,15.7
2017-09-09T06:17:09.227Z,15.7
2017-09-09T06:18:08.521Z,15.7
2017-09-09T06:19:07.832Z,15.7
2017-09-09T06:20:07.138Z,15.7
2017-09-09T06:21:06.185Z,15.7
2017-09-09T06:22:05.236Z,15.7
2017-09-09T06:23:04.691Z,15.7
2017-09-09T06:24:04.090Z,15.7
2017-09-09T06:25:03.388Z,15.7
2017-09-09T06:26:02.569Z,15.7
2017-09-09T06:27:01.998Z,15.7
2017-09-09T06:28:01.170Z,15.6
2017-09-09T06:29:00.849Z,15.6
2017-09-09T06:29:31.477Z,15.6
2017-09-09T06:30:01.836Z,15.6
2017-09-09T06:30:58.741Z,15.6
2017-09-09T06:31:58.419Z,15.6
2017-09-09T06:32:57.715Z,15.6
2017-09-09T06:33:56.886Z,15.5
2017-09-09T06:34:56.190Z,15.5
2017-09-09T06:35:55.616Z,15.5
2017-09-09T06:36:54.659Z,15.5
2017-09-09T06:37:53.831Z,15.5
2017-09-09T06:38:53.133Z,15.4
2017-09-09T06:39:52.593Z,15.4
2017-09-09T06:40:51.768Z,15.4
2017-09-09T06:41:51.075Z,15.4
2017-09-09T06:42:50.506Z,15.3
2017-09-09T06:43:49.436Z,15.3
2017-09-09T06:45:48.122Z,15.3
2017-09-09T06:46:47.426Z,15.3
2017-09-09T06:47:46.722Z,15.2
2017-09-09T06:48:45.904Z,15.2
2017-09-09T06:49:45.233Z,15.2
2017-09-09T06:50:44.379Z,15.2
2017-09-09T06:51:44.061Z,15.1
2017-09-09T06:52:43.356Z,15.1
2017-09-09T06:53:42.033Z,15.1
2017-09-09T06:54:41.709Z,15.1
2017-09-09T06:55:41.008Z,15
2017-09-09T06:56:40.196Z,15
2017-09-09T06:57:39.248Z,15
2017-09-09T06:58:38.671Z,15
2017-09-09T06:59:37.842Z,14.9
2017-09-09T07:00:37.535Z,14.9
2017-09-09T07:01:36.713Z,14.9
2017-09-09T07:02:36.011Z,14.9
2017-09-09T07:03:35.432Z,14.9
2017-09-09T07:04:34.104Z,14.9
2017-09-09T07:05:33.912Z,14.9
2017-09-09T07:07:32.095Z,14.8
2017-09-09T07:08:31.538Z,14.8
2017-09-09T07:09:30.842Z,14.8
2017-09-09T07:10:30.387Z,14.8
2017-09-09T07:11:29.683Z,14.8
2017-09-09T07:12:28.850Z,14.8
2017-09-09T07:13:27.907Z,14.8
2017-09-09T07:14:27.334Z,14.8
2017-09-09T07:15:26.762Z,14.8
2017-09-09T07:16:25.692Z,14.8
2017-09-09T07:16:55.933Z,14.8
2017-09-09T07:17:26.171Z,14.8
2017-09-09T07:18:24.345Z,14.8
2017-09-09T07:19:23.292Z,14.8
2017-09-09T07:20:22.463Z,14.8
2017-09-09T07:41:07.367Z,14.9
2017-09-09T07:44:05.438Z,14.9
2017-09-09T07:45:04.731Z,14.9
2017-09-09T07:46:03.900Z,14.9
2017-09-09T07:47:03.205Z,14.9
2017-09-09T07:48:02.250Z,14.9
2017-09-09T07:49:01.689Z,15
2017-09-09T07:50:00.988Z,15
2017-09-09T07:50:59.936Z,15
2017-09-09T07:52:58.620Z,15
2017-09-09T07:54:56.811Z,15.1
2017-09-09T07:55:56.613Z,15.1
2017-09-09T07:57:54.665Z,15.1
2017-09-09T07:58:54.346Z,15.1
2017-09-09T08:00:52.782Z,15.1
2017-09-09T08:02:51.218Z,15.1
2017-09-09T08:03:50.394Z,15.2
2017-09-09T08:04:50.074Z,15.2
2017-09-09T08:05:49.251Z,15.2
2017-09-09T08:06:48.292Z,15.2
2017-09-09T08:07:47.596Z,15.2
2017-09-09T08:08:46.641Z,15.3
2017-09-09T08:09:45.946Z,15.3
2017-09-09T08:11:44.760Z,15.3
2017-09-09T08:12:44.313Z,15.3
2017-09-09T08:13:43.488Z,15.3
2017-09-09T08:15:41.544Z,15.4
2017-09-09T08:16:40.981Z,15.4
2017-09-09T08:17:40.024Z,15.4
2017-09-09T08:19:39.089Z,15.5
2017-09-09T08:20:38.013Z,15.5
2017-09-09T08:23:35.705Z,15.6
2017-09-09T08:24:34.871Z,15.6
2017-09-09T08:25:34.423Z,15.6
2017-09-09T08:26:33.721Z,15.6
2017-09-09T08:27:33.018Z,15.7
2017-09-09T08:29:31.711Z,15.7
2017-09-09T08:30:30.885Z,15.7
2017-09-09T08:31:30.434Z,15.7
2017-09-09T08:32:29.484Z,15.7
2017-09-09T08:33:28.278Z,15.7
2017-09-09T08:35:26.841Z,15.7
2017-09-09T08:36:26.526Z,15.7
2017-09-09T08:45:19.912Z,15.7
2017-09-09T08:46:19.209Z,15.6
2017-09-09T08:48:17.899Z,15.7
2017-09-09T08:50:16.329Z,15.7
2017-09-09T08:51:15.382Z,15.7
2017-09-09T08:52:14.932Z,15.7
2017-09-09T08:53:14.359Z,15.7
2017-09-09T08:54:13.031Z,15.7
2017-09-09T08:55:12.463Z,15.7
2017-09-09T08:56:12.274Z,15.7
2017-09-09T08:57:10.818Z,15.7
2017-09-09T08:58:10.501Z,15.7
2017-09-09T08:59:09.927Z,15.7
2017-09-09T09:00:09.356Z,15.8
2017-09-09T09:01:08.412Z,15.8
2017-09-09T09:03:06.720Z,15.9
2017-09-09T09:04:06.275Z,15.9
2017-09-09T09:05:05.452Z,15.9
2017-09-09T09:08:03.053Z,15.9
2017-09-09T09:11:01.015Z,15.9
2017-09-09T09:12:00.186Z,15.9
2017-09-09T09:12:59.479Z,15.9
2017-09-09T09:14:58.174Z,15.9
2017-09-09T09:15:57.632Z,15.9
2017-09-09T09:16:56.433Z,15.9
2017-09-09T09:17:55.860Z,15.9
2017-09-09T09:18:55.035Z,15.9
2017-09-09T09:19:54.333Z,15.9
2017-09-09T09:20:53.888Z,15.9
2017-09-09T09:21:53.062Z,15.9
2017-09-09T09:22:52.242Z,15.9
2017-09-09T09:24:50.809Z,15.9
2017-09-09T09:26:49.372Z,15.9
2017-09-09T09:27:48.542Z,16
2017-09-09T09:28:48.089Z,16
2017-09-09T09:29:47.139Z,16
2017-09-09T09:30:46.437Z,16
2017-09-09T09:31:45.862Z,16
2017-09-09T09:32:45.166Z,16
2017-09-09T09:33:44.596Z,16
2017-09-09T09:34:43.642Z,16
2017-09-09T09:35:42.686Z,16.1
2017-09-09T09:36:42.240Z,16.1
2017-09-09T09:37:41.790Z,16.1
2017-09-09T09:38:40.589Z,16.2
2017-09-09T09:39:40.018Z,16.2
2017-09-09T09:40:39.069Z,16.2
2017-09-09T09:42:37.892Z,16.2
2017-09-09T09:43:37.067Z,16.2
2017-09-09T09:44:36.109Z,16.3
2017-09-09T09:45:06.463Z,16.3
2017-09-09T09:47:34.089Z,16.3
2017-09-09T09:48:33.382Z,16.3
2017-09-09T09:49:32.807Z,16.4
2017-09-09T09:50:32.108Z,16.4
2017-09-09T09:51:31.031Z,16.4
2017-09-09T09:52:30.965Z,16.4
2017-09-09T09:53:30.139Z,16.4
2017-09-09T09:54:29.463Z,16.4
2017-09-09T09:56:27.898Z,16.4
2017-09-09T09:58:26.330Z,16.4
2017-09-09T10:05:21.320Z,16.5
2017-09-09T10:06:20.621Z,16.5
2017-09-09T10:09:18.437Z,16.6
2017-09-09T10:10:17.616Z,16.6
2017-09-09T10:12:16.547Z,16.6
2017-09-09T10:16:13.377Z,16.7
2017-09-09T10:17:12.673Z,16.7
2017-09-09T10:18:12.354Z,16.8
2017-09-09T10:19:11.401Z,16.8
2017-09-09T10:20:10.574Z,16.8
2017-09-09T10:21:09.750Z,16.8
2017-09-09T10:22:09.049Z,16.8
2017-09-09T10:23:08.602Z,16.8
2017-09-09T10:24:07.900Z,16.8
2017-09-09T10:25:07.204Z,16.8
2017-09-09T10:26:06.501Z,16.9
2017-09-09T10:27:05.929Z,16.9
2017-09-09T10:28:04.721Z,16.9
2017-09-09T10:29:04.399Z,16.9
2017-09-09T10:30:03.321Z,16.9
2017-09-09T10:32:01.890Z,16.9
2017-09-09T10:33:01.572Z,16.9
2017-09-09T10:34:59.761Z,16.9
2017-09-09T10:36:58.447Z,16.9
2017-09-09T10:37:57.618Z,16.9
2017-09-09T10:38:28.359Z,16.9
2017-09-09T10:38:58.719Z,16.8
2017-09-09T10:42:54.548Z,16.9
2017-09-09T10:43:53.849Z,16.9
2017-09-09T10:45:52.037Z,17
2017-09-09T10:46:51.584Z,17
2017-09-09T10:48:49.894Z,17
2017-09-09T10:51:47.967Z,17
2017-09-09T10:52:47.393Z,17
2017-09-09T10:54:46.080Z,17.1
2017-09-09T10:55:16.067Z,17.1
2017-09-09T10:56:44.434Z,17.1
2017-09-09T10:57:43.734Z,17.2
2017-09-09T10:58:43.042Z,17.2
2017-09-09T11:00:41.984Z,17.2
2017-09-09T11:01:41.283Z,17.2
2017-09-09T11:02:40.453Z,17.3
2017-09-09T11:03:39.507Z,17.3
2017-09-09T11:04:38.939Z,17.3
2017-09-09T11:07:36.636Z,17.4
2017-09-09T11:08:35.939Z,17.4
2017-09-09T11:10:34.501Z,17.4
2017-09-09T11:11:33.926Z,17.4
2017-09-09T11:12:33.099Z,17.4
2017-09-09T11:13:32.645Z,17.4
2017-09-09T11:15:31.081Z,17.5
2017-09-09T11:16:30.544Z,17.5
2017-09-09T11:17:29.719Z,17.5
2017-09-09T11:18:28.763Z,17.5
2017-09-09T11:19:28.443Z,17.4
2017-09-09T11:20:27.609Z,17.4
2017-09-09T11:22:26.416Z,17.3
2017-09-09T11:24:24.846Z,17.2
2017-09-09T11:25:24.019Z,17.1
2017-09-09T11:26:23.570Z,17
2017-09-09T11:28:22.257Z,17
2017-09-09T11:29:21.304Z,16.9
2017-09-09T11:31:19.996Z,16.9
2017-09-09T11:37:15.724Z,16.9
2017-09-09T11:37:46.211Z,16.9
2017-09-09T11:40:13.964Z,16.9
2017-09-09T11:41:13.136Z,16.9
2017-09-09T11:42:12.810Z,16.9
2017-09-09T11:43:11.734Z,16.9
2017-09-09T11:44:11.038Z,16.9
2017-09-09T11:45:10.250Z,16.8
2017-09-09T11:46:09.932Z,16.8
2017-09-09T11:47:09.239Z,16.8
2017-09-09T11:48:08.537Z,16.8
2017-09-09T11:49:07.710Z,16.7
2017-09-09T11:50:07.261Z,16.7
2017-09-09T11:51:05.935Z,16.7
2017-09-09T11:57:02.057Z,16.6
2017-09-09T11:58:01.233Z,16.6
2017-09-09T11:59:00.691Z,16.6
2017-09-09T11:59:59.985Z,16.6
2017-09-09T12:00:59.284Z,16.6
2017-09-09T12:03:57.233Z,16.5
2017-09-09T12:04:56.403Z,16.5
2017-09-09T12:05:55.449Z,16.5
2017-09-09T12:06:55.133Z,16.4
2017-09-09T12:07:54.558Z,16.4
2017-09-09T12:08:53.730Z,16.4
2017-09-09T12:09:52.901Z,16.4
2017-09-09T12:14:49.747Z,16.3
2017-09-09T12:15:48.799Z,16.3
2017-09-09T12:16:48.347Z,16.3
2017-09-09T12:18:46.656Z,16.2
2017-09-09T12:19:45.831Z,16.2
2017-09-09T12:21:44.648Z,16.2
2017-09-09T12:23:43.333Z,16.2
2017-09-09T12:24:42.389Z,16.2
2017-09-09T12:27:40.343Z,16.2
2017-09-09T12:28:39.890Z,16.2
2017-09-09T12:29:38.690Z,16.2
2017-09-09T12:30:38.116Z,16.1
2017-09-09T12:31:37.669Z,16.1
2017-09-09T12:32:36.845Z,16.1
2017-09-09T12:34:35.430Z,16.1
2017-09-09T12:35:34.587Z,16.1
2017-09-09T12:37:33.401Z,16.1
2017-09-09T12:38:32.591Z,16
2017-09-09T12:39:31.765Z,16
2017-09-09T12:40:31.448Z,16
2017-09-09T12:41:30.781Z,16
2017-09-09T12:42:29.951Z,16
2017-09-09T12:43:29.130Z,16
2017-09-09T12:44:28.433Z,16
2017-09-09T12:45:27.726Z,16
2017-09-09T12:46:27.151Z,16
2017-09-09T12:47:26.321Z,16
2017-09-09T12:48:25.499Z,16
2017-09-09T12:51:23.457Z,16
2017-09-09T12:52:22.881Z,16.1
2017-09-09T12:53:22.306Z,16.1
2017-09-09T12:54:21.610Z,16.1
2017-09-09T12:55:20.670Z,16.1
2017-09-09T12:56:19.722Z,16.2
2017-09-09T12:57:19.145Z,16.2
2017-09-09T12:58:18.568Z,16.2
2017-09-09T12:59:17.616Z,16.3
2017-09-09T13:00:17.291Z,16.3
2017-09-09T13:01:16.466Z,16.3
2017-09-09T13:02:15.887Z,16.3
2017-09-09T13:03:15.192Z,16.3
2017-09-09T13:04:14.244Z,16.3
2017-09-09T13:05:13.417Z,16.3
2017-09-09T13:06:12.715Z,16.4
2017-09-09T13:07:12.269Z,16.4
2017-09-09T13:08:11.565Z,16.4
2017-09-09T13:09:10.870Z,16.4
2017-09-09T13:10:10.059Z,16.5
2017-09-09T13:11:09.232Z,16.5
2017-09-09T13:12:09.038Z,16.5
2017-09-09T13:13:07.956Z,16.5
2017-09-09T13:14:07.257Z,16.5
2017-09-09T13:15:06.306Z,16.5
2017-09-09T13:18:04.260Z,16.6
2017-09-09T13:19:03.749Z,16.6
2017-09-09T13:20:02.934Z,16.6
2017-09-09T13:21:02.490Z,16.6
2017-09-09T13:22:01.794Z,16.6
2017-09-09T13:24:59.748Z,16.7
2017-09-09T13:26:58.308Z,16.7
2017-09-09T13:27:57.480Z,16.7
2017-09-09T13:28:56.904Z,16.8
2017-09-09T13:29:56.086Z,16.8
2017-09-09T13:30:55.254Z,16.8
2017-09-09T13:31:54.553Z,16.8
2017-09-09T13:32:53.736Z,16.9
2017-09-09T13:33:52.906Z,16.9
2017-09-09T13:34:52.706Z,17
2017-09-09T13:35:51.628Z,17
2017-09-09T13:36:51.053Z,17
2017-09-09T13:37:50.218Z,17.1
2017-09-09T13:38:49.640Z,17.1
2017-09-09T13:39:48.939Z,17.1
2017-09-09T13:40:48.238Z,17.2
2017-09-09T13:41:47.665Z,17.2
2017-09-09T13:42:46.836Z,17.2
2017-09-09T13:43:46.135Z,17.2
2017-09-09T13:44:45.557Z,17.2
2017-09-09T13:45:44.609Z,17.2
2017-09-09T13:46:44.047Z,17.3
2017-09-09T13:47:43.841Z,17.3
2017-09-09T13:48:43.016Z,17.3
2017-09-09T13:49:41.817Z,17.3
2017-09-09T13:50:41.504Z,17.3
2017-09-09T13:51:40.681Z,17.3
2017-09-09T13:52:40.234Z,17.4
2017-09-09T13:53:39.015Z,17.4
2017-09-09T13:54:38.814Z,17.5
2017-09-09T13:55:37.994Z,17.5
2017-09-09T13:56:08.488Z,17.5
2017-09-09T13:56:39.239Z,17.5
2017-09-09T13:57:09.851Z,17.5
2017-09-09T13:57:39.836Z,17.6
2017-09-09T13:58:10.327Z,17.6
2017-09-09T13:58:40.816Z,17.6
2017-09-09T13:59:11.432Z,17.6
2017-09-09T13:59:41.667Z,17.6
2017-09-09T14:00:12.272Z,17.6
2017-09-09T14:01:33.717Z,17.6
2017-09-09T14:02:33.266Z,17.6
2017-09-09T14:03:32.568Z,17.7
2017-09-09T14:04:31.492Z,17.6
2017-09-09T14:05:31.042Z,17.6
2017-09-09T14:06:30.218Z,17.6
2017-09-09T14:07:29.518Z,17.6
2017-09-09T14:08:29.066Z,17.6
2017-09-09T14:09:28.361Z,17.7
2017-09-09T14:10:27.784Z,17.7
2017-09-09T14:10:57.911Z,17.7
2017-09-09T14:11:28.139Z,17.7
2017-09-09T14:13:25.569Z,17.8
2017-09-09T14:14:24.864Z,17.8
2017-09-09T14:15:24.161Z,17.8
2017-09-09T14:16:23.712Z,17.7
2017-09-09T14:17:23.014Z,17.7
2017-09-09T14:18:22.069Z,17.7
2017-09-09T14:19:21.249Z,17.7
2017-09-09T14:20:21.170Z,17.7
2017-09-09T14:21:19.962Z,17.7
2017-09-09T14:22:19.383Z,17.6
2017-09-09T14:23:18.681Z,17.6
2017-09-09T14:24:17.981Z,17.6
2017-09-09T14:25:17.416Z,17.6
2017-09-09T14:26:16.843Z,17.6
2017-09-09T14:27:15.890Z,17.5
2017-09-09T14:29:14.460Z,17.5
2017-09-09T14:30:14.137Z,17.5
2017-09-09T14:31:13.312Z,17.5
2017-09-09T14:32:12.362Z,17.5
2017-09-09T14:33:12.291Z,17.5
2017-09-09T14:34:11.089Z,17.5
2017-09-09T14:35:10.775Z,17.5
2017-09-09T14:36:09.822Z,17.5
2017-09-09T14:37:09.498Z,17.5
2017-09-09T14:38:08.796Z,17.5
2017-09-09T14:39:08.096Z,17.5
2017-09-09T14:40:07.270Z,17.5
2017-09-09T14:41:06.445Z,17.6
2017-09-09T14:43:05.010Z,17.6
2017-09-09T14:44:04.561Z,17.6
2017-09-09T14:46:03.121Z,17.6
2017-09-09T14:47:02.430Z,17.6
2017-09-09T14:48:01.856Z,17.6
2017-09-09T14:49:01.027Z,17.6
2017-09-09T14:50:00.075Z,17.7
2017-09-09T14:50:59.752Z,17.7
2017-09-09T14:51:30.115Z,17.7
2017-09-09T14:52:00.606Z,17.7
2017-09-09T14:52:58.400Z,17.7
2017-09-09T14:53:58.079Z,17.7
2017-09-09T14:54:56.887Z,17.7
2017-09-09T14:56:55.455Z,17.7
2017-09-09T14:57:55.263Z,17.7
2017-09-09T14:58:54.055Z,17.6
2017-09-09T14:59:53.538Z,17.6
2017-09-09T15:00:53.224Z,17.6
2017-09-09T15:01:52.402Z,17.6
2017-09-09T15:02:51.708Z,17.6
2017-09-09T15:03:50.883Z,17.6
2017-09-09T15:04:50.442Z,17.5
2017-09-09T15:05:49.622Z,17.5
2017-09-09T15:06:49.046Z,17.5
2017-09-09T15:08:47.483Z,17.5
2017-09-09T15:09:46.785Z,17.5
2017-09-09T15:10:46.217Z,17.5
2017-09-09T15:11:45.771Z,17.5
2017-09-09T15:12:45.079Z,17.5
2017-09-09T15:13:43.880Z,17.5
2017-09-09T15:14:43.805Z,17.5
2017-09-09T15:15:42.982Z,17.5
2017-09-09T15:16:42.407Z,17.5
2017-09-09T15:17:41.200Z,17.5
2017-09-09T15:18:40.758Z,17.4
2017-09-09T15:19:39.925Z,17.4
2017-09-09T15:20:39.473Z,17.4
2017-09-09T15:21:38.519Z,17.5
2017-09-09T15:22:38.079Z,17.5
2017-09-09T15:23:37.508Z,17.5
2017-09-09T15:24:36.439Z,17.5
2017-09-09T15:25:36.374Z,17.5
2017-09-09T15:26:35.290Z,17.5
2017-09-09T15:27:34.723Z,17.5
2017-09-09T15:28:33.767Z,17.5
2017-09-09T15:29:33.073Z,17.5
2017-09-09T15:30:32.754Z,17.5
2017-09-09T15:31:32.058Z,17.5
2017-09-09T15:32:31.233Z,17.5
2017-09-09T15:33:30.531Z,17.4
2017-09-09T15:34:29.841Z,17.5
2017-09-09T15:35:29.396Z,17.4
2017-09-09T15:36:28.441Z,17.4
2017-09-09T15:37:27.617Z,17.4
2017-09-09T15:38:27.036Z,17.4
2017-09-09T15:39:26.466Z,17.4
2017-09-09T15:40:25.640Z,17.4
2017-09-09T15:41:24.938Z,17.4
2017-09-09T15:42:24.108Z,17.4
2017-09-09T15:43:24.037Z,17.4
2017-09-09T15:45:22.602Z,17.4
2017-09-09T15:46:21.649Z,17.4
2017-09-09T15:47:21.207Z,17.4
2017-09-09T15:47:51.694Z,17.4
2017-09-09T15:49:19.551Z,17.4
2017-09-09T15:50:18.979Z,17.4
2017-09-09T15:51:18.278Z,17.3
2017-09-09T15:52:17.827Z,17.3
2017-09-09T15:53:17.125Z,17.3
2017-09-09T15:54:16.063Z,17.3
2017-09-09T15:55:15.357Z,17.3
2017-09-09T15:56:14.532Z,17.3
2017-09-09T15:57:14.341Z,17.3
2017-09-09T15:58:13.390Z,17.2
2017-09-09T15:59:12.971Z,17.2
2017-09-09T16:01:11.287Z,17.2
2017-09-09T16:03:09.848Z,17.2
2017-09-09T16:04:09.655Z,17.2
2017-09-09T16:05:08.705Z,17.2
2017-09-09T16:06:08.134Z,17.2
2017-09-09T16:07:07.438Z,17.2
2017-09-09T16:09:06.129Z,17.1
2017-09-09T16:10:05.306Z,17.1
2017-09-09T16:11:04.615Z,17.1
2017-09-09T16:12:04.038Z,17.1
2017-09-09T16:13:03.337Z,17
2017-09-09T16:14:02.780Z,17
2017-09-09T16:15:01.610Z,17
2017-09-09T16:16:01.074Z,17
2017-09-09T16:17:00.121Z,17
2017-09-09T16:17:59.548Z,17
2017-09-09T16:18:59.355Z,17
2017-09-09T16:19:58.031Z,16.9
2017-09-09T16:20:57.956Z,16.9
2017-09-09T16:21:57.267Z,16.9
2017-09-09T16:22:56.202Z,16.9
2017-09-09T16:23:56.000Z,16.9
2017-09-09T16:24:55.047Z,16.8
2017-09-09T16:25:54.482Z,16.8
2017-09-09T16:26:53.779Z,16.8